createdAt,value
2019-03-23T00:00:06.837Z,4.15
2019-03-23T00:05:11.258Z,7.12
2019-03-23T00:10:16.816Z,6.08
2019-03-23T00:15:21.866Z,5.58
2019-03-23T00:20:27.305Z,7.87
2019-03-23T00:25:31.929Z,8.75
2019-03-23T00:35:45.678Z,6.92
2019-03-23T00:40:57.425Z,9.55
2019-03-23T00:46:02.528Z,7.15
2019-03-23T00:51:28.395Z,7.45
2019-03-23T00:57:18.436Z,5.47
2019-03-23T01:03:00.678Z,6.78
2019-03-23T01:08:07.859Z,8.35
2019-03-23T01:13:18.186Z,6.58
2019-03-23T01:18:25.257Z,9.13
2019-03-23T01:23:29.759Z,7.95
2019-03-23T01:28:34.439Z,5.80
2019-03-23T01:38:42.525Z,5.33
2019-03-23T01:48:52.780Z,6.35
2019-03-23T01:54:01.931Z,6.17
2019-03-23T01:59:09.356Z,9.75
2019-03-23T02:04:33.203Z,7.67
2019-03-23T02:09:42.415Z,7.03
2019-03-23T02:14:46.807Z,8.88
2019-03-23T02:19:51.915Z,9.55
2019-03-23T02:24:58.729Z,10.23
2019-03-23T02:30:03.566Z,4.83
2019-03-23T02:35:08.970Z,7.33
2019-03-23T02:40:13.432Z,9.25
2019-03-23T02:45:20.516Z,8.03
2019-03-23T02:50:25.202Z,10.40
2019-03-23T02:55:29.694Z,10.78
2019-03-23T03:00:34.173Z,8.33
2019-03-23T03:05:41.225Z,11.60
2019-03-23T03:11:23.729Z,10.85
2019-03-23T03:16:29.080Z,16.60
2019-03-23T03:21:36.676Z,24.77
2019-03-23T03:26:42.635Z,31.45
2019-03-23T03:31:51.211Z,35.65
2019-03-23T03:36:58.427Z,51.63
2019-03-23T03:42:21.827Z,54.00
2019-03-23T03:47:43.935Z,53.90
2019-03-23T03:52:52.309Z,61.55
2019-03-23T03:58:02.324Z,73.15
2019-03-23T04:03:06.919Z,75.25
2019-03-23T04:13:17.044Z,93.47
2019-03-23T04:18:43.168Z,91.25
2019-03-23T04:23:47.777Z,92.10
2019-03-23T04:33:59.634Z,82.37
2019-03-23T04:44:14.384Z,89.95
2019-03-23T04:49:19.294Z,100.53
2019-03-23T04:54:23.939Z,98.05
2019-03-23T05:04:35.558Z,118.90
2019-03-23T05:09:40.294Z,89.67
2019-03-23T05:20:06.853Z,79.35
2019-03-23T05:25:22.186Z,102.47
2019-03-23T05:30:29.615Z,110.17
2019-03-23T05:35:36.584Z,100.42
2019-03-23T05:40:48.345Z,107.78
2019-03-23T05:45:53.648Z,97.57
2019-03-23T05:50:58.407Z,95.35
2019-03-23T05:56:02.754Z,98.03
2019-03-23T06:01:07.157Z,86.35
2019-03-23T06:06:11.843Z,79.95
2019-03-23T06:16:23.647Z,77.78
2019-03-23T06:21:28.001Z,91.60
2019-03-23T06:26:34.046Z,80.95
2019-03-23T06:31:39.519Z,93.42
2019-03-23T06:36:51.160Z,102.05
2019-03-23T06:41:57.210Z,107.72
2019-03-23T06:47:02.801Z,121.22
2019-03-23T06:52:07.108Z,93.90
2019-03-23T06:57:11.412Z,109.80
2019-03-23T07:02:18.197Z,96.63
2019-03-23T07:07:23.090Z,110.32
2019-03-23T07:12:29.139Z,57.50
2019-03-23T07:17:58.155Z,95.57
2019-03-23T07:23:02.966Z,105.55
2019-03-23T07:28:08.061Z,99.60
2019-03-23T07:33:13.803Z,101.67
2019-03-23T07:38:18.581Z,120.90
2019-03-23T07:43:22.939Z,117.03
2019-03-23T07:48:30.825Z,125.20
2019-03-23T07:53:54.589Z,108.65
2019-03-23T07:58:59.032Z,114.92
2019-03-23T08:04:13.979Z,107.78
2019-03-23T08:09:20.718Z,121.33
2019-03-23T08:14:32.771Z,105.92
2019-03-23T08:19:37.546Z,113.08
2019-03-23T08:24:42.277Z,103.58
2019-03-23T08:34:49.873Z,98.12
2019-03-23T08:39:54.146Z,116.47
2019-03-23T08:44:58.537Z,95.12
2019-03-23T08:50:02.891Z,111.92
2019-03-23T08:55:07.184Z,98.45
2019-03-23T09:00:11.632Z,113.20
2019-03-23T09:05:16.377Z,120.22
2019-03-23T09:10:26.249Z,111.20
2019-03-23T09:15:32.137Z,121.47
2019-03-23T09:20:36.519Z,114.65
2019-03-23T09:25:42.020Z,107.70
2019-03-23T09:31:14.198Z,113.92
2019-03-23T09:36:22.909Z,109.25
2019-03-23T09:42:02.060Z,118.72
2019-03-23T09:47:11.980Z,97.08
2019-03-23T09:52:18.710Z,115.92
2019-03-23T09:57:24.402Z,115.40
2019-03-23T10:02:36.188Z,109.63
2019-03-23T10:08:03.574Z,126.22
2019-03-23T10:13:08.085Z,108.05
2019-03-23T10:19:13.691Z,119.30
2019-03-23T10:24:46.599Z,129.45
2019-03-23T10:29:51.347Z,101.60
2019-03-23T10:40:02.496Z,120.60
2019-03-23T10:45:07.028Z,92.47
2019-03-23T10:50:11.395Z,104.65
2019-03-23T10:55:17.278Z,103.53
2019-03-23T11:00:21.632Z,99.22
2019-03-23T11:05:26.078Z,98.67
2019-03-23T11:10:31.538Z,99.37
2019-03-23T11:15:36.100Z,96.22
2019-03-23T11:20:41.047Z,92.17
2019-03-23T11:25:45.311Z,92.42
2019-03-23T11:30:49.780Z,95.67
2019-03-23T11:35:58.106Z,96.10
2019-03-23T11:41:01.300Z,96.72
2019-03-23T11:46:05.676Z,86.05
2019-03-23T11:51:10.017Z,72.62
2019-03-23T11:56:14.587Z,97.72
2019-03-23T12:01:19.134Z,83.72
2019-03-23T12:06:23.443Z,83.30
2019-03-23T12:11:28.112Z,77.32
2019-03-23T12:21:36.150Z,75.70
2019-03-23T12:26:40.482Z,75.65
2019-03-23T12:31:45.111Z,74.22
2019-03-23T12:36:49.681Z,67.03
2019-03-23T12:41:54.662Z,64.30
2019-03-23T12:46:58.996Z,63.65
2019-03-23T12:52:04.619Z,72.32
2019-03-23T12:57:09.047Z,71.82
2019-03-23T13:02:13.400Z,71.22
2019-03-23T13:07:17.758Z,67.40
2019-03-23T13:12:22.102Z,70.37
2019-03-23T13:17:26.763Z,73.07
2019-03-23T13:22:31.314Z,64.05
2019-03-23T13:27:35.924Z,65.47
2019-03-23T13:32:40.253Z,65.47
2019-03-23T13:37:44.828Z,71.40
2019-03-23T13:42:49.136Z,65.37
2019-03-23T13:47:54.939Z,56.85
2019-03-23T13:52:59.413Z,68.60
2019-03-23T13:58:09.890Z,72.75
2019-03-23T14:03:14.894Z,60.55
2019-03-23T14:08:19.518Z,59.77
2019-03-23T14:13:27.785Z,69.72
2019-03-23T14:18:32.044Z,64.32
2019-03-23T14:23:36.437Z,72.08
2019-03-23T14:28:40.850Z,69.95
2019-03-23T14:33:47.361Z,67.62
2019-03-23T14:38:52.159Z,62.98
2019-03-23T14:49:03.860Z,80.57
2019-03-23T14:54:08.657Z,61.80
2019-03-23T15:04:16.146Z,68.67
2019-03-23T15:09:20.487Z,68.85
2019-03-23T15:14:24.759Z,62.80
2019-03-23T15:19:29.362Z,64.92
2019-03-23T15:24:37.815Z,64.70
2019-03-23T15:29:42.466Z,69.35
2019-03-23T15:34:47.280Z,67.75
2019-03-23T15:44:55.388Z,65.40
2019-03-23T15:49:59.773Z,66.00
2019-03-23T15:55:05.781Z,70.17
2019-03-23T16:00:11.431Z,69.07
2019-03-23T16:05:18.940Z,56.50
2019-03-23T16:10:23.298Z,64.80
2019-03-23T16:15:27.566Z,63.52
2019-03-23T16:20:35.656Z,67.30
2019-03-23T16:25:43.354Z,59.55
2019-03-23T16:30:48.143Z,59.40
2019-03-23T16:41:01.626Z,69.37
2019-03-23T16:46:06.025Z,62.80
2019-03-23T16:51:12.187Z,64.80
2019-03-23T16:56:16.569Z,61.13
2019-03-23T17:01:23.730Z,64.70
2019-03-23T17:06:28.055Z,62.58
2019-03-23T17:11:39.283Z,63.70
2019-03-23T17:16:46.744Z,63.35
2019-03-23T17:21:53.034Z,68.05
2019-03-23T17:27:00.064Z,74.75
2019-03-23T17:32:06.352Z,66.50
2019-03-23T17:37:10.935Z,69.90
2019-03-23T17:42:15.615Z,61.92
2019-03-23T17:47:19.954Z,68.45
2019-03-23T17:52:25.131Z,72.40
2019-03-23T17:57:29.828Z,65.85
2019-03-23T18:02:34.963Z,65.03
2019-03-23T18:07:39.911Z,67.45
2019-03-23T18:12:44.319Z,70.57
2019-03-23T18:17:56.166Z,72.47
2019-03-23T18:23:00.539Z,76.07
2019-03-23T18:28:04.933Z,75.32
2019-03-23T18:33:11.162Z,72.22
2019-03-23T18:38:15.546Z,70.10
2019-03-23T18:43:27.339Z,80.97
2019-03-23T18:48:26.288Z,73.85
2019-03-23T18:53:30.600Z,78.22
2019-03-23T18:58:34.887Z,68.20
2019-03-23T19:03:40.449Z,73.97
2019-03-23T19:08:44.909Z,64.90
2019-03-23T19:13:49.637Z,68.40
2019-03-23T19:23:57.194Z,72.32
2019-03-23T19:29:01.489Z,58.25
2019-03-23T19:34:05.852Z,79.22
2019-03-23T19:39:14.143Z,60.70
2019-03-23T19:44:21.265Z,72.78
2019-03-23T19:49:25.598Z,68.40
2019-03-23T19:54:30.160Z,65.08
2019-03-23T19:59:34.505Z,66.65
2019-03-23T20:04:39.403Z,72.58
2019-03-23T20:09:43.708Z,69.85
2019-03-23T20:14:47.984Z,57.73
2019-03-23T20:19:52.297Z,56.68
2019-03-23T20:24:56.644Z,51.53
2019-03-23T20:30:01.066Z,49.35
2019-03-23T20:35:05.741Z,47.90
2019-03-23T20:40:10.600Z,41.42
2019-03-23T20:45:28.537Z,29.05
2019-03-23T20:50:33.718Z,35.75
2019-03-23T20:55:38.024Z,26.48
2019-03-23T21:00:42.435Z,26.48
2019-03-23T21:05:47.140Z,25.48
2019-03-23T21:15:54.674Z,23.15
2019-03-23T21:20:58.994Z,15.48
2019-03-23T21:26:04.128Z,26.07
2019-03-23T21:31:09.496Z,22.95
2019-03-23T21:36:13.826Z,22.13
2019-03-23T21:41:18.515Z,18.37
2019-03-23T21:51:25.981Z,19.17
2019-03-23T21:56:31.163Z,23.57
2019-03-23T22:01:35.819Z,20.72
2019-03-23T22:06:40.125Z,16.48
2019-03-23T22:11:44.463Z,21.25
2019-03-23T22:16:50.167Z,22.17
2019-03-23T22:21:54.529Z,19.23
2019-03-23T22:26:58.889Z,24.25
2019-03-23T22:32:07.106Z,23.70
2019-03-23T22:37:11.411Z,18.32
2019-03-23T22:42:16.516Z,20.60
2019-03-23T22:47:20.865Z,23.32
2019-03-23T22:52:25.242Z,26.37
2019-03-23T22:57:29.479Z,23.85
2019-03-23T23:02:33.934Z,26.85
2019-03-23T23:07:38.318Z,24.43
2019-03-23T23:12:42.617Z,24.47
2019-03-23T23:17:47.141Z,28.23
2019-03-23T23:22:51.488Z,31.70
2019-03-23T23:27:56.113Z,29.63
2019-03-23T23:33:00.679Z,20.30
2019-03-23T23:38:05.053Z,33.73
2019-03-23T23:43:09.831Z,30.60
2019-03-23T23:53:17.639Z,22.93
2019-03-23T23:58:22.251Z,27.82
